createdAt,value
2022-08-11T00:04:15.851Z,42.3
2022-08-11T00:09:56.102Z,42.3
2022-08-11T00:15:43.236Z,42.3
2022-08-11T00:22:54.069Z,42.4
2022-08-11T00:28:53.733Z,42.4
2022-08-11T00:34:50.231Z,42.5
2022-08-11T00:41:25.745Z,42.5
2022-08-11T00:46:52.744Z,42.6
2022-08-11T00:53:09.913Z,42.6
2022-08-11T00:59:26.475Z,42.6
2022-08-11T01:05:25.050Z,42.7
2022-08-11T01:11:29.877Z,42.7
2022-08-11T01:17:36.763Z,42.7
2022-08-11T01:30:28.462Z,42.8
2022-08-11T01:36:05.125Z,42.8
2022-08-11T01:46:52.527Z,42.9
2022-08-11T01:53:40.851Z,42.9
2022-08-11T01:59:16.947Z,42.9
2022-08-11T02:05:03.440Z,42.9
2022-08-11T02:11:09.824Z,42.9
2022-08-11T02:16:46.013Z,43
2022-08-11T02:22:25.955Z,43
2022-08-11T02:29:03.032Z,43
2022-08-11T02:36:05.824Z,43
2022-08-11T02:47:43.776Z,43.1
2022-08-11T02:53:29.763Z,43.1
2022-08-11T02:59:38.158Z,43.1
2022-08-11T03:05:10.689Z,43.1
2022-08-11T03:11:10.493Z,43.1
2022-08-11T03:16:37.500Z,43.1
2022-08-11T03:22:35.379Z,43.1
2022-08-11T03:28:16.246Z,43.2
2022-08-11T03:33:57.111Z,43.2
2022-08-11T03:40:13.302Z,43.2
2022-08-11T03:46:48.574Z,43.2
2022-08-11T03:52:41.395Z,43.2
2022-08-11T03:58:18.684Z,43.3
2022-08-11T04:04:04.356Z,43.3
2022-08-11T04:09:46.751Z,43.3
2022-08-11T04:15:52.880Z,43.3
2022-08-11T04:21:38.838Z,43.3
2022-08-11T04:29:25.747Z,43.3
2022-08-11T04:36:09.723Z,43.3
2022-08-11T04:41:50.446Z,43.3
2022-08-11T04:48:19.832Z,43.3
2022-08-11T04:54:36.128Z,43.3
2022-08-11T05:00:16.064Z,43.3
2022-08-11T05:06:13.264Z,43.3
2022-08-11T05:11:33.922Z,43.3
2022-08-11T05:17:04.618Z,43.3
2022-08-11T05:22:51.216Z,43.3
2022-08-11T05:30:09.779Z,43.3
2022-08-11T05:36:34.890Z,43.2
2022-08-11T05:43:12.239Z,43.3
2022-08-11T05:50:04.936Z,43.2
2022-08-11T05:56:53.317Z,43.2
2022-08-11T06:02:59.286Z,43.2
2022-08-11T06:08:55.588Z,43.2
2022-08-11T06:14:50.913Z,43.2
2022-08-11T06:20:40.282Z,43.2
2022-08-11T06:26:18.108Z,43.2
2022-08-11T06:32:30.131Z,43.1
2022-08-11T06:38:15.802Z,42.9
2022-08-11T06:43:55.260Z,42.8
2022-08-11T06:49:37.325Z,42.8
2022-08-11T06:56:46.278Z,43.1
2022-08-11T07:02:39.166Z,43.1
2022-08-11T07:09:50.501Z,43.2
2022-08-11T07:16:46.298Z,44
2022-08-11T07:23:10.469Z,44.1
2022-08-11T07:29:19.229Z,45.1
2022-08-11T07:35:29.699Z,45.7
2022-08-11T07:41:15.467Z,46.4
2022-08-11T07:46:54.510Z,46.9
2022-08-11T07:52:35.747Z,47.4
2022-08-11T08:01:09.981Z,48.1
2022-08-11T08:07:26.059Z,48.8
2022-08-11T08:12:53.742Z,49.4
2022-08-11T08:18:58.187Z,49.8
2022-08-11T08:25:19.128Z,50.1
2022-08-11T08:31:11.703Z,50.4
2022-08-11T08:37:02.005Z,50.7
2022-08-11T08:43:18.117Z,50.9
2022-08-11T08:50:03.178Z,51.2
2022-08-11T08:56:43.851Z,51.4
2022-08-11T09:08:46.387Z,52.3
2022-08-11T09:14:40.100Z,52.8
2022-08-11T09:20:15.193Z,53.4
2022-08-11T09:27:20.944Z,54
2022-08-11T09:33:02.668Z,54.6
2022-08-11T09:39:05.990Z,55.1
2022-08-11T09:45:14.285Z,55.7
2022-08-11T09:51:06.960Z,56.2
2022-08-11T09:57:45.144Z,56.8
2022-08-11T10:03:57.076Z,57.3
2022-08-11T10:09:46.400Z,57.9
2022-08-11T10:17:20.466Z,58.4
2022-08-11T10:23:17.425Z,58.9
2022-08-11T10:30:44.407Z,59.4
2022-08-11T10:38:07.086Z,60.1
2022-08-11T10:45:23.901Z,60.6
2022-08-11T10:51:11.591Z,61.2
2022-08-11T10:57:13.597Z,61.6
2022-08-11T11:03:39.253Z,61.9
2022-08-11T11:10:14.395Z,62.4
2022-08-11T11:16:07.079Z,62.8
2022-08-11T11:22:16.785Z,63.1
2022-08-11T11:28:07.231Z,63.5
2022-08-11T11:34:28.902Z,63.8
2022-08-11T11:40:35.249Z,64.1
2022-08-11T11:46:30.439Z,64.3
2022-08-11T11:52:23.376Z,64.6
2022-08-11T11:58:16.050Z,64.9
2022-08-11T12:04:08.724Z,65.1
2022-08-11T12:10:12.259Z,65.4
2022-08-11T12:16:50.427Z,65.8
2022-08-11T12:23:14.729Z,66
2022-08-11T12:31:10.765Z,66.3
2022-08-11T12:37:06.692Z,66.4
2022-08-11T12:45:03.664Z,66.3
2022-08-11T12:52:33.640Z,66.2
2022-08-11T12:58:46.570Z,66.1
2022-08-11T13:04:31.781Z,66.1
2022-08-11T13:10:33.575Z,65.9
2022-08-11T13:23:00.746Z,65.8
2022-08-11T13:29:22.299Z,65.6
2022-08-11T13:35:03.589Z,65.6
2022-08-11T13:42:18.345Z,65.4
2022-08-11T13:47:59.786Z,65.3
2022-08-11T13:53:42.237Z,65.3
2022-08-11T14:02:36.257Z,65.1
2022-08-11T14:09:11.302Z,65
2022-08-11T14:16:17.274Z,64.9
2022-08-11T14:23:00.441Z,64.8
2022-08-11T14:30:37.850Z,64.6
2022-08-11T14:37:11.900Z,64.5
2022-08-11T14:43:18.557Z,64.4
2022-08-11T14:50:25.814Z,64.3
2022-08-11T14:56:16.747Z,64.2
2022-08-11T15:02:29.944Z,64.1
2022-08-11T15:09:16.301Z,64
2022-08-11T15:15:45.349Z,63.9
2022-08-11T15:21:43.426Z,63.8
2022-08-11T15:27:21.325Z,63.8
2022-08-11T15:33:34.860Z,63.6
2022-08-11T15:39:37.472Z,63.5
2022-08-11T15:46:14.394Z,63.4
2022-08-11T15:52:34.947Z,63.3
2022-08-11T15:58:16.165Z,63.3
2022-08-11T16:06:01.205Z,63.2
2022-08-11T16:12:32.647Z,63
2022-08-11T16:18:14.347Z,62.8
2022-08-11T16:25:59.072Z,62.6
2022-08-11T16:32:47.678Z,62.4
2022-08-11T16:39:16.769Z,62.2
2022-08-11T16:46:00.914Z,62.1
2022-08-11T16:52:35.694Z,61.8
2022-08-11T16:59:57.888Z,61.6
2022-08-11T17:05:38.234Z,61.4
2022-08-11T17:18:01.162Z,61.1
2022-08-11T17:31:38.946Z,60.8
2022-08-11T17:37:35.919Z,60.6
2022-08-11T17:43:25.836Z,60.6
2022-08-11T17:49:06.464Z,60.5
2022-08-11T17:55:51.369Z,60.4
2022-08-11T18:01:49.871Z,60.3
2022-08-11T18:07:59.299Z,60.2
2022-08-11T18:14:28.661Z,60.1
2022-08-11T18:20:03.667Z,60.1
2022-08-11T18:26:24.199Z,60
2022-08-11T18:32:10.150Z,59.9
2022-08-11T18:39:08.110Z,59.1
2022-08-11T18:45:07.414Z,58.4
2022-08-11T18:52:37.299Z,57.9
2022-08-11T18:58:27.664Z,57.4
2022-08-11T19:11:18.895Z,56.7
2022-08-11T19:17:12.691Z,56.4
2022-08-11T19:23:12.553Z,56.3
2022-08-11T19:28:23.010Z,56.1
2022-08-11T19:35:24.944Z,55.9
2022-08-11T19:41:11.025Z,55.9
2022-08-11T19:47:48.909Z,55.8
2022-08-11T19:54:07.501Z,55.7
2022-08-11T19:59:36.400Z,55.6
2022-08-11T20:05:55.805Z,55.6
2022-08-11T20:12:24.474Z,55.4
2022-08-11T20:18:00.282Z,55.4
2022-08-11T20:24:17.988Z,55.4
2022-08-11T20:30:34.306Z,55.4
2022-08-11T20:36:06.635Z,55.3
2022-08-11T20:49:24.345Z,55.3
2022-08-11T20:56:28.406Z,55.3
2022-08-11T21:15:09.446Z,55.2
2022-08-11T21:23:23.817Z,55.1
2022-08-11T21:29:18.144Z,55.1
2022-08-11T21:34:57.310Z,55.1
2022-08-11T21:40:50.306Z,55.1
2022-08-11T21:46:37.530Z,55.1
2022-08-11T21:52:37.092Z,55.1
2022-08-11T21:58:22.698Z,55.1
2022-08-11T22:04:09.230Z,55
2022-08-11T22:09:37.253Z,55
2022-08-11T22:17:00.245Z,54.9
2022-08-11T22:23:51.433Z,54.9
2022-08-11T22:30:23.396Z,54.9
2022-08-11T22:36:34.696Z,54.9
2022-08-11T22:42:06.747Z,54.8
2022-08-11T22:47:40.346Z,54.8
2022-08-11T23:05:42.436Z,54.8
2022-08-11T23:11:18.359Z,54.8
2022-08-11T23:17:21.841Z,54.7
2022-08-11T23:24:29.178Z,54.7
2022-08-11T23:30:11.514Z,54.6
2022-08-11T23:37:52.595Z,54.6
2022-08-11T23:43:35.730Z,54.6
2022-08-11T23:49:30.276Z,54.6
2022-08-11T23:55:26.389Z,54.5
